sensor_id;sensor_type;location;lat;lon;timestamp;temperature;humidity
1361;DHT22;674;45.552;-122.600;2024-03-06T00:00:05;6.60;1.00
1361;DHT22;674;45.552;-122.600;2024-03-06T00:02:35;6.50;1.00
1361;DHT22;674;45.552;-122.600;2024-03-06T00:05:04;6.00;1.00
1361;DHT22;674;45.552;-122.600;2024-03-06T00:07:36;6.50;1.00
1361;DHT22;674;45.552;-122.600;2024-03-06T00:10:05;6.50;1.00
1361;DHT22;674;45.552;-122.600;2024-03-06T00:12:33;6.50;1.00
1361;DHT22;674;45.552;-122.600;2024-03-06T00:15:02;6.60;1.00
1361;DHT22;674;45.552;-122.600;2024-03-06T00:17:30;6.60;1.00
1361;DHT22;674;45.552;-122.600;2024-03-06T00:19:59;6.60;1.00
1361;DHT22;674;45.552;-122.600;2024-03-06T00:22:27;6.50;1.00
1361;DHT22;674;45.552;-122.600;2024-03-06T00:24:56;6.30;1.00
1361;DHT22;674;45.552;-122.600;2024-03-06T00:27:24;6.30;1.00
1361;DHT22;674;45.552;-122.600;2024-03-06T00:29:53;6.30;1.00
1361;DHT22;674;45.552;-122.600;2024-03-06T00:32:21;6.60;1.00
1361;DHT22;674;45.552;-122.600;2024-03-06T00:34:51;6.50;1.00
1361;DHT22;674;45.552;-122.600;2024-03-06T00:37:19;6.30;1.00
1361;DHT22;674;45.552;-122.600;2024-03-06T00:39:48;6.50;1.00
1361;DHT22;674;45.552;-122.600;2024-03-06T00:42:16;6.30;1.00
1361;DHT22;674;45.552;-122.600;2024-03-06T00:44:45;6.50;1.00
1361;DHT22;674;45.552;-122.600;2024-03-06T00:47:13;6.40;1.00
1361;DHT22;674;45.552;-122.600;2024-03-06T00:49:42;6.30;1.00
1361;DHT22;674;45.552;-122.600;2024-03-06T00:52:10;6.60;1.00
1361;DHT22;674;45.552;-122.600;2024-03-06T00:54:39;6.50;1.00
1361;DHT22;674;45.552;-122.600;2024-03-06T00:57:07;6.50;1.00
1361;DHT22;674;45.552;-122.600;2024-03-06T00:59:35;6.20;1.00
1361;DHT22;674;45.552;-122.600;2024-03-06T01:02:04;6.30;1.00
1361;DHT22;674;45.552;-122.600;2024-03-06T01:04:34;6.20;1.00
1361;DHT22;674;45.552;-122.600;2024-03-06T01:07:02;6.00;1.00
1361;DHT22;674;45.552;-122.600;2024-03-06T01:09:31;6.20;1.00
1361;DHT22;674;45.552;-122.600;2024-03-06T01:11:59;6.00;1.00
1361;DHT22;674;45.552;-122.600;2024-03-06T01:14:27;6.20;1.00
1361;DHT22;674;45.552;-122.600;2024-03-06T01:16:56;6.10;1.00
1361;DHT22;674;45.552;-122.600;2024-03-06T01:19:25;6.20;1.00
1361;DHT22;674;45.552;-122.600;2024-03-06T01:21:53;5.90;1.00
1361;DHT22;674;45.552;-122.600;2024-03-06T01:24:21;6.10;1.00
1361;DHT22;674;45.552;-122.600;2024-03-06T01:26:50;5.80;1.00
1361;DHT22;674;45.552;-122.600;2024-03-06T01:29:18;5.70;1.00
1361;DHT22;674;45.552;-122.600;2024-03-06T01:31:47;5.90;1.00
1361;DHT22;674;45.552;-122.600;2024-03-06T01:34:15;5.70;1.00
1361;DHT22;674;45.552;-122.600;2024-03-06T01:36:44;5.80;1.00
1361;DHT22;674;45.552;-122.600;2024-03-06T01:39:12;5.90;1.00
1361;DHT22;674;45.552;-122.600;2024-03-06T01:41:48;5.90;1.00
1361;DHT22;674;45.552;-122.600;2024-03-06T01:44:18;5.80;1.00
1361;DHT22;674;45.552;-122.600;2024-03-06T01:46:46;5.80;1.00
1361;DHT22;674;45.552;-122.600;2024-03-06T01:49:15;5.50;1.00
1361;DHT22;674;45.552;-122.600;2024-03-06T01:51:59;5.60;1.00
1361;DHT22;674;45.552;-122.600;2024-03-06T01:54:29;5.30;1.00
1361;DHT22;674;45.552;-122.600;2024-03-06T01:56:59;5.10;1.00
1361;DHT22;674;45.552;-122.600;2024-03-06T01:59:30;5.10;1.00
1361;DHT22;674;45.552;-122.600;2024-03-06T02:02:04;5.00;1.00
1361;DHT22;674;45.552;-122.600;2024-03-06T02:04:33;5.00;1.00
1361;DHT22;674;45.552;-122.600;2024-03-06T02:07:02;5.20;1.00
1361;DHT22;674;45.552;-122.600;2024-03-06T02:09:31;4.70;1.00
1361;DHT22;674;45.552;-122.600;2024-03-06T02:11:59;4.40;1.00
1361;DHT22;674;45.552;-122.600;2024-03-06T02:14:29;4.40;1.00
1361;DHT22;674;45.552;-122.600;2024-03-06T02:16:57;4.50;1.00
1361;DHT22;674;45.552;-122.600;2024-03-06T02:19:38;4.20;1.00
1361;DHT22;674;45.552;-122.600;2024-03-06T02:22:07;4.10;1.00
1361;DHT22;674;45.552;-122.600;2024-03-06T02:24:37;3.80;1.00
1361;DHT22;674;45.552;-122.600;2024-03-06T02:27:05;3.90;1.00
1361;DHT22;674;45.552;-122.600;2024-03-06T02:29:34;3.80;1.00
1361;DHT22;674;45.552;-122.600;2024-03-06T02:32:02;3.80;1.00
1361;DHT22;674;45.552;-122.600;2024-03-06T02:34:31;3.70;1.00
1361;DHT22;674;45.552;-122.600;2024-03-06T02:36:59;3.50;1.00
1361;DHT22;674;45.552;-122.600;2024-03-06T02:39:28;3.50;1.00
1361;DHT22;674;45.552;-122.600;2024-03-06T02:41:56;3.60;1.00
1361;DHT22;674;45.552;-122.600;2024-03-06T02:44:25;3.70;1.00
1361;DHT22;674;45.552;-122.600;2024-03-06T02:46:53;3.30;1.00
1361;DHT22;674;45.552;-122.600;2024-03-06T02:49:22;3.40;1.00
1361;DHT22;674;45.552;-122.600;2024-03-06T02:51:51;3.30;1.00
1361;DHT22;674;45.552;-122.600;2024-03-06T02:54:19;3.50;1.00
1361;DHT22;674;45.552;-122.600;2024-03-06T02:56:48;3.10;1.00
1361;DHT22;674;45.552;-122.600;2024-03-06T02:59:16;3.30;1.00
1361;DHT22;674;45.552;-122.600;2024-03-06T03:01:45;3.00;1.00
1361;DHT22;674;45.552;-122.600;2024-03-06T03:04:13;3.20;1.00
1361;DHT22;674;45.552;-122.600;2024-03-06T03:06:42;3.00;1.00
1361;DHT22;674;45.552;-122.600;2024-03-06T03:09:10;2.80;1.00
1361;DHT22;674;45.552;-122.600;2024-03-06T03:11:42;2.80;1.00
1361;DHT22;674;45.552;-122.600;2024-03-06T03:14:14;2.70;1.00
1361;DHT22;674;45.552;-122.600;2024-03-06T03:16:42;2.60;1.00
1361;DHT22;674;45.552;-122.600;2024-03-06T03:19:11;2.80;1.00
1361;DHT22;674;45.552;-122.600;2024-03-06T03:21:46;2.70;1.00
1361;DHT22;674;45.552;-122.600;2024-03-06T03:24:15;2.70;1.40
1361;DHT22;674;45.552;-122.600;2024-03-06T03:26:44;2.80;1.70
1361;DHT22;674;45.552;-122.600;2024-03-06T03:29:12;2.80;2.70
1361;DHT22;674;45.552;-122.600;2024-03-06T03:31:41;2.50;4.40
1361;DHT22;674;45.552;-122.600;2024-03-06T03:34:10;2.70;7.60
1361;DHT22;674;45.552;-122.600;2024-03-06T03:36:42;2.70;9.70
1361;DHT22;674;45.552;-122.600;2024-03-06T03:39:11;2.70;10.70
1361;DHT22;674;45.552;-122.600;2024-03-06T03:41:44;2.70;14.10
1361;DHT22;674;45.552;-122.600;2024-03-06T03:44:14;2.50;14.00
1361;DHT22;674;45.552;-122.600;2024-03-06T03:46:43;2.50;17.70
1361;DHT22;674;45.552;-122.600;2024-03-06T03:49:12;2.40;18.00
1361;DHT22;674;45.552;-122.600;2024-03-06T03:51:41;2.50;22.60
1361;DHT22;674;45.552;-122.600;2024-03-06T03:54:09;2.50;25.30
1361;DHT22;674;45.552;-122.600;2024-03-06T03:56:38;2.40;27.30
1361;DHT22;674;45.552;-122.600;2024-03-06T03:59:06;2.60;31.60
1361;DHT22;674;45.552;-122.600;2024-03-06T04:01:35;2.50;37.60
1361;DHT22;674;45.552;-122.600;2024-03-06T04:04:04;2.30;40.10
1361;DHT22;674;45.552;-122.600;2024-03-06T04:06:32;2.50;45.20
1361;DHT22;674;45.552;-122.600;2024-03-06T04:09:01;2.40;48.00
1361;DHT22;674;45.552;-122.600;2024-03-06T04:11:30;2.50;49.80
1361;DHT22;674;45.552;-122.600;2024-03-06T04:14:02;2.30;52.10
1361;DHT22;674;45.552;-122.600;2024-03-06T04:16:30;2.20;52.70
1361;DHT22;674;45.552;-122.600;2024-03-06T04:19:00;2.50;54.80
1361;DHT22;674;45.552;-122.600;2024-03-06T04:21:29;2.20;58.60
1361;DHT22;674;45.552;-122.600;2024-03-06T04:23:58;2.30;59.00
1361;DHT22;674;45.552;-122.600;2024-03-06T04:26:26;2.30;57.80
1361;DHT22;674;45.552;-122.600;2024-03-06T04:28:55;2.20;56.10
1361;DHT22;674;45.552;-122.600;2024-03-06T04:31:23;2.10;58.40
1361;DHT22;674;45.552;-122.600;2024-03-06T04:33:53;2.20;60.70
1361;DHT22;674;45.552;-122.600;2024-03-06T04:36:21;2.20;64.10
1361;DHT22;674;45.552;-122.600;2024-03-06T04:38:49;1.80;62.80
1361;DHT22;674;45.552;-122.600;2024-03-06T04:41:19;2.30;64.90
1361;DHT22;674;45.552;-122.600;2024-03-06T04:43:48;1.90;66.00
1361;DHT22;674;45.552;-122.600;2024-03-06T04:46:18;2.00;72.10
1361;DHT22;674;45.552;-122.600;2024-03-06T04:48:47;2.00;74.50
1361;DHT22;674;45.552;-122.600;2024-03-06T04:51:16;1.70;78.30
1361;DHT22;674;45.552;-122.600;2024-03-06T04:53:48;2.00;78.50
1361;DHT22;674;45.552;-122.600;2024-03-06T04:56:16;1.70;78.40
1361;DHT22;674;45.552;-122.600;2024-03-06T04:58:47;1.90;83.50
1361;DHT22;674;45.552;-122.600;2024-03-06T05:01:15;2.00;78.70
1361;DHT22;674;45.552;-122.600;2024-03-06T05:03:44;2.00;78.70
1361;DHT22;674;45.552;-122.600;2024-03-06T05:06:29;1.90;81.10
1361;DHT22;674;45.552;-122.600;2024-03-06T05:09:14;2.00;87.80
1361;DHT22;674;45.552;-122.600;2024-03-06T05:11:59;1.80;85.20
1361;DHT22;674;45.552;-122.600;2024-03-06T05:14:44;2.00;83.90
1361;DHT22;674;45.552;-122.600;2024-03-06T05:17:29;1.90;86.30
1361;DHT22;674;45.552;-122.600;2024-03-06T05:20:14;2.00;87.50
1361;DHT22;674;45.552;-122.600;2024-03-06T05:23:01;2.00;88.10
1361;DHT22;674;45.552;-122.600;2024-03-06T05:25:46;2.10;84.80
1361;DHT22;674;45.552;-122.600;2024-03-06T05:28:32;1.90;75.80
1361;DHT22;674;45.552;-122.600;2024-03-06T05:31:18;1.90;72.10
1361;DHT22;674;45.552;-122.600;2024-03-06T05:34:03;1.80;70.60
1361;DHT22;674;45.552;-122.600;2024-03-06T05:36:50;1.70;71.60
1361;DHT22;674;45.552;-122.600;2024-03-06T05:39:35;1.60;71.60
1361;DHT22;674;45.552;-122.600;2024-03-06T05:42:21;1.70;73.80
1361;DHT22;674;45.552;-122.600;2024-03-06T05:45:07;1.60;72.30
1361;DHT22;674;45.552;-122.600;2024-03-06T05:47:55;1.80;68.70
1361;DHT22;674;45.552;-122.600;2024-03-06T05:50:40;1.40;71.60
1361;DHT22;674;45.552;-122.600;2024-03-06T05:53:25;1.60;78.70
1361;DHT22;674;45.552;-122.600;2024-03-06T05:56:10;1.50;82.50
1361;DHT22;674;45.552;-122.600;2024-03-06T05:58:55;1.60;80.80
1361;DHT22;674;45.552;-122.600;2024-03-06T06:01:24;1.70;77.90
1361;DHT22;674;45.552;-122.600;2024-03-06T06:03:52;1.30;74.20
1361;DHT22;674;45.552;-122.600;2024-03-06T06:06:21;1.40;74.60
1361;DHT22;674;45.552;-122.600;2024-03-06T06:08:49;1.40;79.00
1361;DHT22;674;45.552;-122.600;2024-03-06T06:11:17;1.30;84.70
1361;DHT22;674;45.552;-122.600;2024-03-06T06:13:46;1.20;87.70
1361;DHT22;674;45.552;-122.600;2024-03-06T06:16:15;1.20;90.40
1361;DHT22;674;45.552;-122.600;2024-03-06T06:18:43;1.10;91.20
1361;DHT22;674;45.552;-122.600;2024-03-06T06:21:11;1.00;92.40
1361;DHT22;674;45.552;-122.600;2024-03-06T06:23:40;0.70;94.00
1361;DHT22;674;45.552;-122.600;2024-03-06T06:26:09;0.70;95.60
1361;DHT22;674;45.552;-122.600;2024-03-06T06:28:41;0.70;95.90
1361;DHT22;674;45.552;-122.600;2024-03-06T06:31:10;0.90;98.40
1361;DHT22;674;45.552;-122.600;2024-03-06T06:33:38;0.80;99.90
1361;DHT22;674;45.552;-122.600;2024-03-06T06:36:07;0.40;99.90
1361;DHT22;674;45.552;-122.600;2024-03-06T06:38:35;0.70;99.90
1361;DHT22;674;45.552;-122.600;2024-03-06T06:41:04;0.80;99.90
1361;DHT22;674;45.552;-122.600;2024-03-06T06:43:32;0.40;99.90
1361;DHT22;674;45.552;-122.600;2024-03-06T06:46:01;0.40;99.90
1361;DHT22;674;45.552;-122.600;2024-03-06T06:48:32;0.40;99.90
1361;DHT22;674;45.552;-122.600;2024-03-06T06:51:01;0.40;99.90
1361;DHT22;674;45.552;-122.600;2024-03-06T06:53:32;0.40;99.90
1361;DHT22;674;45.552;-122.600;2024-03-06T06:56:01;0.40;99.90
1361;DHT22;674;45.552;-122.600;2024-03-06T06:58:30;0.20;99.90
1361;DHT22;674;45.552;-122.600;2024-03-06T07:00:58;0.40;99.90
1361;DHT22;674;45.552;-122.600;2024-03-06T07:03:26;0.30;99.90
1361;DHT22;674;45.552;-122.600;2024-03-06T07:05:57;0.10;99.90
1361;DHT22;674;45.552;-122.600;2024-03-06T07:08:26;0.20;99.90
1361;DHT22;674;45.552;-122.600;2024-03-06T07:10:54;0.40;99.90
1361;DHT22;674;45.552;-122.600;2024-03-06T07:13:23;0.30;99.90
1361;DHT22;674;45.552;-122.600;2024-03-06T07:15:51;0.20;99.90
1361;DHT22;674;45.552;-122.600;2024-03-06T07:18:21;0.20;99.90
1361;DHT22;674;45.552;-122.600;2024-03-06T07:20:50;0.10;99.90
1361;DHT22;674;45.552;-122.600;2024-03-06T07:23:18;0.10;99.90
1361;DHT22;674;45.552;-122.600;2024-03-06T07:25:47;0.30;99.90
1361;DHT22;674;45.552;-122.600;2024-03-06T07:28:15;0.10;99.90
1361;DHT22;674;45.552;-122.600;2024-03-06T07:30:44;0.10;99.90
1361;DHT22;674;45.552;-122.600;2024-03-06T07:33:12;0.10;99.90
1361;DHT22;674;45.552;-122.600;2024-03-06T07:35:42;0.30;99.90
1361;DHT22;674;45.552;-122.600;2024-03-06T07:38:10;-0.10;99.90
1361;DHT22;674;45.552;-122.600;2024-03-06T07:40:39;0.30;99.90
1361;DHT22;674;45.552;-122.600;2024-03-06T07:43:07;-0.10;99.90
1361;DHT22;674;45.552;-122.600;2024-03-06T07:45:35;-0.10;99.90
1361;DHT22;674;45.552;-122.600;2024-03-06T07:48:05;-0.10;99.90
1361;DHT22;674;45.552;-122.600;2024-03-06T07:50:33;0.10;99.90
1361;DHT22;674;45.552;-122.600;2024-03-06T07:53:02;0.10;99.90
1361;DHT22;674;45.552;-122.600;2024-03-06T07:55:30;-0.10;99.90
1361;DHT22;674;45.552;-122.600;2024-03-06T07:57:59;0.00;99.90
1361;DHT22;674;45.552;-122.600;2024-03-06T08:00:27;0.10;99.90
1361;DHT22;674;45.552;-122.600;2024-03-06T08:02:56;0.10;99.90
1361;DHT22;674;45.552;-122.600;2024-03-06T08:05:24;0.10;99.90
1361;DHT22;674;45.552;-122.600;2024-03-06T08:07:52;-0.10;99.90
1361;DHT22;674;45.552;-122.600;2024-03-06T08:10:21;0.00;99.90
1361;DHT22;674;45.552;-122.600;2024-03-06T08:12:50;-0.10;99.90
1361;DHT22;674;45.552;-122.600;2024-03-06T08:15:18;0.20;99.90
1361;DHT22;674;45.552;-122.600;2024-03-06T08:17:49;0.10;99.90
1361;DHT22;674;45.552;-122.600;2024-03-06T08:20:17;0.10;99.90
1361;DHT22;674;45.552;-122.600;2024-03-06T08:22:46;-0.10;99.90
1361;DHT22;674;45.552;-122.600;2024-03-06T08:25:14;-0.10;99.90
1361;DHT22;674;45.552;-122.600;2024-03-06T08:27:43;0.20;99.90
1361;DHT22;674;45.552;-122.600;2024-03-06T08:30:11;-0.20;99.90
1361;DHT22;674;45.552;-122.600;2024-03-06T08:32:40;-0.20;99.90
1361;DHT22;674;45.552;-122.600;2024-03-06T08:35:12;-0.10;99.90
1361;DHT22;674;45.552;-122.600;2024-03-06T08:37:46;0.10;99.90
1361;DHT22;674;45.552;-122.600;2024-03-06T08:40:14;0.10;99.90
1361;DHT22;674;45.552;-122.600;2024-03-06T08:42:44;0.10;99.90
1361;DHT22;674;45.552;-122.600;2024-03-06T08:45:13;0.00;99.90
1361;DHT22;674;45.552;-122.600;2024-03-06T08:47:44;-0.30;99.90
1361;DHT22;674;45.552;-122.600;2024-03-06T08:50:13;0.00;99.90
1361;DHT22;674;45.552;-122.600;2024-03-06T08:52:41;-0.30;99.90
1361;DHT22;674;45.552;-122.600;2024-03-06T08:55:10;-0.20;99.90
1361;DHT22;674;45.552;-122.600;2024-03-06T08:57:39;-0.40;99.90
1361;DHT22;674;45.552;-122.600;2024-03-06T09:00:08;-0.10;99.90
1361;DHT22;674;45.552;-122.600;2024-03-06T09:02:39;-0.20;99.90
1361;DHT22;674;45.552;-122.600;2024-03-06T09:05:10;0.00;99.90
1361;DHT22;674;45.552;-122.600;2024-03-06T09:07:41;-0.40;99.90
1361;DHT22;674;45.552;-122.600;2024-03-06T09:10:13;-0.10;99.90
1361;DHT22;674;45.552;-122.600;2024-03-06T09:12:41;-0.30;99.90
1361;DHT22;674;45.552;-122.600;2024-03-06T09:15:10;-0.20;99.90
1361;DHT22;674;45.552;-122.600;2024-03-06T09:17:39;-0.40;99.90
1361;DHT22;674;45.552;-122.600;2024-03-06T09:20:08;0.00;99.90
1361;DHT22;674;45.552;-122.600;2024-03-06T09:22:41;-0.30;99.90
1361;DHT22;674;45.552;-122.600;2024-03-06T09:25:11;-0.20;99.90
1361;DHT22;674;45.552;-122.600;2024-03-06T09:27:43;-0.40;99.90
1361;DHT22;674;45.552;-122.600;2024-03-06T09:30:12;-0.10;99.90
1361;DHT22;674;45.552;-122.600;2024-03-06T09:32:41;0.00;99.90
1361;DHT22;674;45.552;-122.600;2024-03-06T09:35:12;-0.30;99.90
1361;DHT22;674;45.552;-122.600;2024-03-06T09:37:42;-0.20;99.90
1361;DHT22;674;45.552;-122.600;2024-03-06T09:40:11;-0.30;99.90
1361;DHT22;674;45.552;-122.600;2024-03-06T09:42:48;-0.20;99.90
1361;DHT22;674;45.552;-122.600;2024-03-06T09:45:17;-0.40;99.90
1361;DHT22;674;45.552;-122.600;2024-03-06T09:47:47;-0.30;99.90
1361;DHT22;674;45.552;-122.600;2024-03-06T09:50:22;-0.20;99.90
1361;DHT22;674;45.552;-122.600;2024-03-06T09:52:53;-0.60;99.90
1361;DHT22;674;45.552;-122.600;2024-03-06T09:55:23;-0.30;99.90
1361;DHT22;674;45.552;-122.600;2024-03-06T09:57:53;-0.30;99.90
1361;DHT22;674;45.552;-122.600;2024-03-06T10:00:22;-0.30;99.90
1361;DHT22;674;45.552;-122.600;2024-03-06T10:02:59;-0.30;99.90
1361;DHT22;674;45.552;-122.600;2024-03-06T10:05:33;-0.20;99.90
1361;DHT22;674;45.552;-122.600;2024-03-06T10:08:02;-0.40;99.90
1361;DHT22;674;45.552;-122.600;2024-03-06T10:10:34;-0.20;99.90
1361;DHT22;674;45.552;-122.600;2024-03-06T10:13:03;-0.40;99.90
1361;DHT22;674;45.552;-122.600;2024-03-06T10:15:31;0.00;99.90
1361;DHT22;674;45.552;-122.600;2024-03-06T10:18:14;-0.10;99.90
1361;DHT22;674;45.552;-122.600;2024-03-06T10:20:43;0.10;99.90
1361;DHT22;674;45.552;-122.600;2024-03-06T10:23:12;-0.30;99.90
1361;DHT22;674;45.552;-122.600;2024-03-06T10:25:43;-0.20;99.90
1361;DHT22;674;45.552;-122.600;2024-03-06T10:28:13;-0.40;99.90
1361;DHT22;674;45.552;-122.600;2024-03-06T10:30:42;0.00;99.90
1361;DHT22;674;45.552;-122.600;2024-03-06T10:33:12;-0.30;99.90
1361;DHT22;674;45.552;-122.600;2024-03-06T10:35:44;-0.30;99.90
1361;DHT22;674;45.552;-122.600;2024-03-06T10:38:14;-0.20;99.90
1361;DHT22;674;45.552;-122.600;2024-03-06T10:40:44;-0.10;99.90
1361;DHT22;674;45.552;-122.600;2024-03-06T10:43:12;-0.10;99.90
1361;DHT22;674;45.552;-122.600;2024-03-06T10:45:49;-0.20;99.90
1361;DHT22;674;45.552;-122.600;2024-03-06T10:48:18;0.10;99.90
1361;DHT22;674;45.552;-122.600;2024-03-06T10:50:49;-0.10;99.90
1361;DHT22;674;45.552;-122.600;2024-03-06T10:53:18;0.00;99.90
1361;DHT22;674;45.552;-122.600;2024-03-06T10:55:51;-0.30;99.90
1361;DHT22;674;45.552;-122.600;2024-03-06T10:58:20;-0.10;99.90
1361;DHT22;674;45.552;-122.600;2024-03-06T11:00:50;-0.10;99.90
1361;DHT22;674;45.552;-122.600;2024-03-06T11:03:19;0.00;99.90
1361;DHT22;674;45.552;-122.600;2024-03-06T11:05:48;-0.30;99.90
1361;DHT22;674;45.552;-122.600;2024-03-06T11:08:19;-0.20;99.90
1361;DHT22;674;45.552;-122.600;2024-03-06T11:10:49;-0.40;99.90
1361;DHT22;674;45.552;-122.600;2024-03-06T11:15:53;-0.40;99.90
1361;DHT22;674;45.552;-122.600;2024-03-06T11:24:14;-0.30;99.90
1361;DHT22;674;45.552;-122.600;2024-03-06T11:26:55;-0.20;99.90
1361;DHT22;674;45.552;-122.600;2024-03-06T11:29:28;-0.40;99.90
1361;DHT22;674;45.552;-122.600;2024-03-06T11:32:05;-0.10;99.90
1361;DHT22;674;45.552;-122.600;2024-03-06T11:34:37;-0.20;99.90
1361;DHT22;674;45.552;-122.600;2024-03-06T11:37:07;-0.30;99.90
1361;DHT22;674;45.552;-122.600;2024-03-06T11:39:39;-0.30;99.90
1361;DHT22;674;45.552;-122.600;2024-03-06T11:42:09;-0.30;99.90
1361;DHT22;674;45.552;-122.600;2024-03-06T11:44:55;-0.20;99.90
1361;DHT22;674;45.552;-122.600;2024-03-06T11:47:24;-0.10;99.90
1361;DHT22;674;45.552;-122.600;2024-03-06T11:49:54;-0.40;99.90
1361;DHT22;674;45.552;-122.600;2024-03-06T11:52:23;-0.20;99.90
1361;DHT22;674;45.552;-122.600;2024-03-06T11:54:52;-0.40;99.90
1361;DHT22;674;45.552;-122.600;2024-03-06T11:57:21;-0.30;99.90
1361;DHT22;674;45.552;-122.600;2024-03-06T11:59:52;-0.40;99.90
1361;DHT22;674;45.552;-122.600;2024-03-06T12:02:21;-0.80;99.90
1361;DHT22;674;45.552;-122.600;2024-03-06T12:04:50;-0.80;99.90
1361;DHT22;674;45.552;-122.600;2024-03-06T12:07:19;-0.80;99.90
1361;DHT22;674;45.552;-122.600;2024-03-06T12:09:47;-0.70;99.90
1361;DHT22;674;45.552;-122.600;2024-03-06T12:12:16;-1.00;99.90
1361;DHT22;674;45.552;-122.600;2024-03-06T12:14:58;-1.00;99.90
1361;DHT22;674;45.552;-122.600;2024-03-06T12:17:28;-1.00;99.90
1361;DHT22;674;45.552;-122.600;2024-03-06T12:19:56;-1.00;99.90
1361;DHT22;674;45.552;-122.600;2024-03-06T12:22:25;-1.00;99.90
1361;DHT22;674;45.552;-122.600;2024-03-06T12:25:00;-0.70;99.90
1361;DHT22;674;45.552;-122.600;2024-03-06T12:27:29;-0.80;99.90
1361;DHT22;674;45.552;-122.600;2024-03-06T12:29:59;-0.70;99.90
1361;DHT22;674;45.552;-122.600;2024-03-06T12:32:27;-0.60;99.90
1361;DHT22;674;45.552;-122.600;2024-03-06T12:34:58;-0.90;99.90
1361;DHT22;674;45.552;-122.600;2024-03-06T12:37:32;-1.00;99.90
1361;DHT22;674;45.552;-122.600;2024-03-06T12:40:03;-1.20;99.90
1361;DHT22;674;45.552;-122.600;2024-03-06T12:42:41;-1.20;99.90
1361;DHT22;674;45.552;-122.600;2024-03-06T12:45:09;-1.30;99.90
1361;DHT22;674;45.552;-122.600;2024-03-06T12:47:43;-1.30;99.90
1361;DHT22;674;45.552;-122.600;2024-03-06T12:50:13;-1.40;99.90
1361;DHT22;674;45.552;-122.600;2024-03-06T12:52:43;-1.00;99.90
1361;DHT22;674;45.552;-122.600;2024-03-06T12:55:13;-1.00;99.90
1361;DHT22;674;45.552;-122.600;2024-03-06T12:57:42;-1.00;99.90
1361;DHT22;674;45.552;-122.600;2024-03-06T13:00:12;-1.00;99.90
1361;DHT22;674;45.552;-122.600;2024-03-06T13:02:44;-1.00;99.90
1361;DHT22;674;45.552;-122.600;2024-03-06T13:05:13;-1.00;99.90
1361;DHT22;674;45.552;-122.600;2024-03-06T13:07:43;-1.00;99.90
1361;DHT22;674;45.552;-122.600;2024-03-06T13:10:12;-0.70;99.90
1361;DHT22;674;45.552;-122.600;2024-03-06T13:12:40;-0.80;99.90
1361;DHT22;674;45.552;-122.600;2024-03-06T13:15:09;-0.80;99.90
1361;DHT22;674;45.552;-122.600;2024-03-06T13:17:38;-0.70;99.90
1361;DHT22;674;45.552;-122.600;2024-03-06T13:20:08;-0.60;99.90
1361;DHT22;674;45.552;-122.600;2024-03-06T13:22:42;-0.50;99.90
1361;DHT22;674;45.552;-122.600;2024-03-06T13:25:12;-0.50;99.90
1361;DHT22;674;45.552;-122.600;2024-03-06T13:27:40;-0.50;99.90
1361;DHT22;674;45.552;-122.600;2024-03-06T13:30:09;-0.60;99.90
1361;DHT22;674;45.552;-122.600;2024-03-06T13:32:37;-0.50;99.90
1361;DHT22;674;45.552;-122.600;2024-03-06T13:35:06;-0.50;99.90
1361;DHT22;674;45.552;-122.600;2024-03-06T13:37:40;-0.50;99.90
1361;DHT22;674;45.552;-122.600;2024-03-06T13:40:10;-0.50;99.90
1361;DHT22;674;45.552;-122.600;2024-03-06T13:42:42;-0.50;99.90
1361;DHT22;674;45.552;-122.600;2024-03-06T13:45:10;-0.40;99.90
1361;DHT22;674;45.552;-122.600;2024-03-06T13:47:44;-0.80;99.90
1361;DHT22;674;45.552;-122.600;2024-03-06T13:50:14;-0.80;99.90
1361;DHT22;674;45.552;-122.600;2024-03-06T13:52:43;-0.80;99.90
1361;DHT22;674;45.552;-122.600;2024-03-06T13:55:11;-0.70;99.90
1361;DHT22;674;45.552;-122.600;2024-03-06T13:57:40;-0.90;99.90
1361;DHT22;674;45.552;-122.600;2024-03-06T14:00:10;-0.60;99.90
1361;DHT22;674;45.552;-122.600;2024-03-06T14:02:46;-0.80;99.90
1361;DHT22;674;45.552;-122.600;2024-03-06T14:05:15;-0.70;99.90
1361;DHT22;674;45.552;-122.600;2024-03-06T14:07:44;-0.60;99.90
1361;DHT22;674;45.552;-122.600;2024-03-06T14:10:12;-0.70;99.90
1361;DHT22;674;45.552;-122.600;2024-03-06T14:12:41;-0.40;99.90
1361;DHT22;674;45.552;-122.600;2024-03-06T14:15:10;-0.70;99.90
1361;DHT22;674;45.552;-122.600;2024-03-06T14:17:44;-0.80;99.90
1361;DHT22;674;45.552;-122.600;2024-03-06T14:20:13;-0.70;99.90
1361;DHT22;674;45.552;-122.600;2024-03-06T14:22:43;-1.00;99.90
1361;DHT22;674;45.552;-122.600;2024-03-06T14:25:12;-0.80;99.90
1361;DHT22;674;45.552;-122.600;2024-03-06T14:27:41;-0.80;99.90
1361;DHT22;674;45.552;-122.600;2024-03-06T14:30:10;-1.00;99.90
1361;DHT22;674;45.552;-122.600;2024-03-06T14:32:39;-1.00;99.90
1361;DHT22;674;45.552;-122.600;2024-03-06T14:35:08;-1.20;99.90
1361;DHT22;674;45.552;-122.600;2024-03-06T14:37:37;-1.20;99.90
1361;DHT22;674;45.552;-122.600;2024-03-06T14:40:07;-1.30;99.90
1361;DHT22;674;45.552;-122.600;2024-03-06T14:42:36;-1.20;99.90
1361;DHT22;674;45.552;-122.600;2024-03-06T14:45:05;-1.00;99.90
1361;DHT22;674;45.552;-122.600;2024-03-06T14:47:33;-0.90;99.90
1361;DHT22;674;45.552;-122.600;2024-03-06T14:50:02;-1.00;99.90
1361;DHT22;674;45.552;-122.600;2024-03-06T14:52:31;-1.00;99.90
1361;DHT22;674;45.552;-122.600;2024-03-06T14:54:59;-0.80;99.90
1361;DHT22;674;45.552;-122.600;2024-03-06T14:57:28;-1.00;99.90
1361;DHT22;674;45.552;-122.600;2024-03-06T14:59:56;-1.00;99.90
1361;DHT22;674;45.552;-122.600;2024-03-06T15:02:26;-1.00;99.90
1361;DHT22;674;45.552;-122.600;2024-03-06T15:04:54;-1.00;99.90
1361;DHT22;674;45.552;-122.600;2024-03-06T15:07:23;-1.00;99.90
1361;DHT22;674;45.552;-122.600;2024-03-06T15:09:51;-1.00;99.90
1361;DHT22;674;45.552;-122.600;2024-03-06T15:12:20;-0.90;99.90
1361;DHT22;674;45.552;-122.600;2024-03-06T15:14:48;-0.80;99.90
1361;DHT22;674;45.552;-122.600;2024-03-06T15:17:25;-0.80;99.90
1361;DHT22;674;45.552;-122.600;2024-03-06T15:19:56;-0.80;99.90
1361;DHT22;674;45.552;-122.600;2024-03-06T15:22:25;-0.80;99.90
1361;DHT22;674;45.552;-122.600;2024-03-06T15:24:54;-0.60;99.90
1361;DHT22;674;45.552;-122.600;2024-03-06T15:27:22;-0.60;99.90
1361;DHT22;674;45.552;-122.600;2024-03-06T15:29:51;-0.40;99.90
1361;DHT22;674;45.552;-122.600;2024-03-06T15:32:19;-0.10;99.90
1361;DHT22;674;45.552;-122.600;2024-03-06T15:34:48;0.10;99.90
1361;DHT22;674;45.552;-122.600;2024-03-06T15:37:16;0.10;99.90
1361;DHT22;674;45.552;-122.600;2024-03-06T15:39:45;0.10;99.90
1361;DHT22;674;45.552;-122.600;2024-03-06T15:42:13;0.00;99.90
1361;DHT22;674;45.552;-122.600;2024-03-06T15:44:42;0.10;99.90
1361;DHT22;674;45.552;-122.600;2024-03-06T15:47:10;0.30;99.90
1361;DHT22;674;45.552;-122.600;2024-03-06T15:49:39;0.40;99.90
1361;DHT22;674;45.552;-122.600;2024-03-06T15:52:08;0.70;99.90
1361;DHT22;674;45.552;-122.600;2024-03-06T15:54:37;0.90;99.90
1361;DHT22;674;45.552;-122.600;2024-03-06T15:57:06;0.70;99.90
1361;DHT22;674;45.552;-122.600;2024-03-06T15:59:36;0.70;99.90
1361;DHT22;674;45.552;-122.600;2024-03-06T16:02:05;1.00;99.90
1361;DHT22;674;45.552;-122.600;2024-03-06T16:04:33;1.10;99.90
1361;DHT22;674;45.552;-122.600;2024-03-06T16:07:02;0.80;99.90
1361;DHT22;674;45.552;-122.600;2024-03-06T16:09:31;1.20;99.90